sensor_id;sensor_type;location;lat;lon;timestamp;temperature;humidity
70269;DHT22;58514;48.398;-4.274;2023-02-13T00:00:35;7.70;74.20
70269;DHT22;58514;48.398;-4.274;2023-02-13T00:03:01;7.70;73.80
70269;DHT22;58514;48.398;-4.274;2023-02-13T00:05:27;7.60;73.80
70269;DHT22;58514;48.398;-4.274;2023-02-13T00:07:52;7.70;74.10
70269;DHT22;58514;48.398;-4.274;2023-02-13T00:10:18;7.60;73.70
70269;DHT22;58514;48.398;-4.274;2023-02-13T00:12:43;7.60;74.20
70269;DHT22;58514;48.398;-4.274;2023-02-13T00:15:09;7.60;74.80
70269;DHT22;58514;48.398;-4.274;2023-02-13T00:17:34;7.60;75.00
70269;DHT22;58514;48.398;-4.274;2023-02-13T00:20:00;7.60;74.80
70269;DHT22;58514;48.398;-4.274;2023-02-13T00:22:26;7.50;75.10
70269;DHT22;58514;48.398;-4.274;2023-02-13T00:24:51;7.50;75.40
70269;DHT22;58514;48.398;-4.274;2023-02-13T00:27:17;7.50;75.90
70269;DHT22;58514;48.398;-4.274;2023-02-13T00:29:43;7.50;75.50
70269;DHT22;58514;48.398;-4.274;2023-02-13T00:32:08;7.50;75.80
70269;DHT22;58514;48.398;-4.274;2023-02-13T00:34:34;7.50;74.60
70269;DHT22;58514;48.398;-4.274;2023-02-13T00:36:59;7.40;75.60
70269;DHT22;58514;48.398;-4.274;2023-02-13T00:39:25;7.40;76.10
70269;DHT22;58514;48.398;-4.274;2023-02-13T00:41:50;7.40;76.80
70269;DHT22;58514;48.398;-4.274;2023-02-13T00:44:16;7.40;75.90
70269;DHT22;58514;48.398;-4.274;2023-02-13T00:46:41;7.40;76.20
70269;DHT22;58514;48.398;-4.274;2023-02-13T00:49:07;7.30;76.30
70269;DHT22;58514;48.398;-4.274;2023-02-13T00:51:33;7.30;76.40
70269;DHT22;58514;48.398;-4.274;2023-02-13T00:53:58;7.30;76.50
70269;DHT22;58514;48.398;-4.274;2023-02-13T00:56:24;7.30;76.20
70269;DHT22;58514;48.398;-4.274;2023-02-13T00:58:49;7.20;76.80
70269;DHT22;58514;48.398;-4.274;2023-02-13T01:01:15;7.20;77.30
70269;DHT22;58514;48.398;-4.274;2023-02-13T01:03:41;7.20;77.00
70269;DHT22;58514;48.398;-4.274;2023-02-13T01:06:06;7.20;77.50
70269;DHT22;58514;48.398;-4.274;2023-02-13T01:08:32;7.20;77.50
70269;DHT22;58514;48.398;-4.274;2023-02-13T01:10:58;7.20;78.10
70269;DHT22;58514;48.398;-4.274;2023-02-13T01:13:23;7.20;77.20
70269;DHT22;58514;48.398;-4.274;2023-02-13T01:15:50;7.20;77.70
70269;DHT22;58514;48.398;-4.274;2023-02-13T01:18:16;7.10;77.10
70269;DHT22;58514;48.398;-4.274;2023-02-13T01:20:42;7.10;78.30
70269;DHT22;58514;48.398;-4.274;2023-02-13T01:23:11;7.10;78.10
70269;DHT22;58514;48.398;-4.274;2023-02-13T01:25:40;7.10;78.40
70269;DHT22;58514;48.398;-4.274;2023-02-13T01:28:06;7.10;77.80
70269;DHT22;58514;48.398;-4.274;2023-02-13T01:30:31;7.10;77.80
70269;DHT22;58514;48.398;-4.274;2023-02-13T01:32:57;7.10;77.90
70269;DHT22;58514;48.398;-4.274;2023-02-13T01:35:22;7.00;77.60
70269;DHT22;58514;48.398;-4.274;2023-02-13T01:37:48;7.00;78.40
70269;DHT22;58514;48.398;-4.274;2023-02-13T01:40:14;7.00;78.90
70269;DHT22;58514;48.398;-4.274;2023-02-13T01:42:39;7.00;78.50
70269;DHT22;58514;48.398;-4.274;2023-02-13T01:47:44;6.90;78.20
70269;DHT22;58514;48.398;-4.274;2023-02-13T01:52:37;6.90;78.20
70269;DHT22;58514;48.398;-4.274;2023-02-13T01:55:04;6.90;79.40
70269;DHT22;58514;48.398;-4.274;2023-02-13T01:57:30;6.80;79.10
70269;DHT22;58514;48.398;-4.274;2023-02-13T01:59:59;6.80;79.30
70269;DHT22;58514;48.398;-4.274;2023-02-13T02:02:25;6.80;78.80
70269;DHT22;58514;48.398;-4.274;2023-02-13T02:04:52;6.70;79.00
70269;DHT22;58514;48.398;-4.274;2023-02-13T02:07:19;6.70;79.50
70269;DHT22;58514;48.398;-4.274;2023-02-13T02:09:45;6.70;80.10
70269;DHT22;58514;48.398;-4.274;2023-02-13T02:14:49;6.70;79.50
70269;DHT22;58514;48.398;-4.274;2023-02-13T02:17:15;6.70;79.40
70269;DHT22;58514;48.398;-4.274;2023-02-13T02:19:47;6.60;79.50
70269;DHT22;58514;48.398;-4.274;2023-02-13T02:27:49;6.60;79.50
70269;DHT22;58514;48.398;-4.274;2023-02-13T02:32:50;6.50;79.70
70269;DHT22;58514;48.398;-4.274;2023-02-13T02:42:57;6.50;79.70
70269;DHT22;58514;48.398;-4.274;2023-02-13T02:45:29;6.50;80.20
70269;DHT22;58514;48.398;-4.274;2023-02-13T02:47:59;6.50;80.40
70269;DHT22;58514;48.398;-4.274;2023-02-13T02:50:50;6.50;80.30
70269;DHT22;58514;48.398;-4.274;2023-02-13T02:58:19;6.50;81.00
70269;DHT22;58514;48.398;-4.274;2023-02-13T03:01:06;6.40;80.10
70269;DHT22;58514;48.398;-4.274;2023-02-13T03:03:50;6.40;80.50
70269;DHT22;58514;48.398;-4.274;2023-02-13T03:06:36;6.40;81.40
70269;DHT22;58514;48.398;-4.274;2023-02-13T03:09:05;6.40;80.80
70269;DHT22;58514;48.398;-4.274;2023-02-13T03:11:53;6.30;81.10
70269;DHT22;58514;48.398;-4.274;2023-02-13T03:14:38;6.30;80.90
70269;DHT22;58514;48.398;-4.274;2023-02-13T03:17:04;6.30;80.20
70269;DHT22;58514;48.398;-4.274;2023-02-13T03:39:18;6.30;81.30
70269;DHT22;58514;48.398;-4.274;2023-02-13T03:42:08;6.30;81.10
70269;DHT22;58514;48.398;-4.274;2023-02-13T03:44:33;6.20;80.50
70269;DHT22;58514;48.398;-4.274;2023-02-13T03:47:01;6.20;81.60
70269;DHT22;58514;48.398;-4.274;2023-02-13T03:52:21;6.20;80.50
70269;DHT22;58514;48.398;-4.274;2023-02-13T03:54:49;6.20;80.70
70269;DHT22;58514;48.398;-4.274;2023-02-13T03:57:35;6.20;81.00
70269;DHT22;58514;48.398;-4.274;2023-02-13T04:00:21;6.20;81.00
70269;DHT22;58514;48.398;-4.274;2023-02-13T04:02:56;6.20;80.70
70269;DHT22;58514;48.398;-4.274;2023-02-13T04:05:23;6.10;80.50
70269;DHT22;58514;48.398;-4.274;2023-02-13T04:07:50;6.10;80.60
70269;DHT22;58514;48.398;-4.274;2023-02-13T04:10:16;6.10;81.50
70269;DHT22;58514;48.398;-4.274;2023-02-13T04:12:58;6.10;81.10
70269;DHT22;58514;48.398;-4.274;2023-02-13T04:15:45;6.10;80.90
70269;DHT22;58514;48.398;-4.274;2023-02-13T04:21:07;6.00;81.70
70269;DHT22;58514;48.398;-4.274;2023-02-13T04:23:33;6.00;81.50
70269;DHT22;58514;48.398;-4.274;2023-02-13T04:26:03;6.00;81.60
70269;DHT22;58514;48.398;-4.274;2023-02-13T04:28:30;6.00;81.40
70269;DHT22;58514;48.398;-4.274;2023-02-13T04:30:56;6.00;81.70
70269;DHT22;58514;48.398;-4.274;2023-02-13T04:33:22;5.90;81.70
70269;DHT22;58514;48.398;-4.274;2023-02-13T04:35:48;5.90;82.30
70269;DHT22;58514;48.398;-4.274;2023-02-13T04:38:13;5.90;82.50
70269;DHT22;58514;48.398;-4.274;2023-02-13T04:40:39;5.80;82.10
70269;DHT22;58514;48.398;-4.274;2023-02-13T04:43:05;5.80;82.60
70269;DHT22;58514;48.398;-4.274;2023-02-13T04:45:30;5.80;82.50
70269;DHT22;58514;48.398;-4.274;2023-02-13T04:47:56;5.80;82.50
70269;DHT22;58514;48.398;-4.274;2023-02-13T04:50:22;5.80;81.50
70269;DHT22;58514;48.398;-4.274;2023-02-13T04:52:49;5.80;81.50
70269;DHT22;58514;48.398;-4.274;2023-02-13T04:55:16;5.80;82.00
70269;DHT22;58514;48.398;-4.274;2023-02-13T04:57:42;5.80;82.00
70269;DHT22;58514;48.398;-4.274;2023-02-13T05:00:08;5.80;82.50
70269;DHT22;58514;48.398;-4.274;2023-02-13T05:02:33;5.70;82.40
70269;DHT22;58514;48.398;-4.274;2023-02-13T05:04:59;5.70;81.80
70269;DHT22;58514;48.398;-4.274;2023-02-13T05:07:24;5.70;82.10
70269;DHT22;58514;48.398;-4.274;2023-02-13T05:09:50;5.70;82.60
70269;DHT22;58514;48.398;-4.274;2023-02-13T05:12:16;5.70;82.70
70269;DHT22;58514;48.398;-4.274;2023-02-13T05:14:41;5.60;82.90
70269;DHT22;58514;48.398;-4.274;2023-02-13T05:17:07;5.60;83.20
70269;DHT22;58514;48.398;-4.274;2023-02-13T05:19:32;5.60;82.70
70269;DHT22;58514;48.398;-4.274;2023-02-13T05:21:58;5.60;83.30
70269;DHT22;58514;48.398;-4.274;2023-02-13T05:24:42;5.60;83.30
70269;DHT22;58514;48.398;-4.274;2023-02-13T05:27:08;5.60;83.90
70269;DHT22;58514;48.398;-4.274;2023-02-13T05:29:33;5.50;83.50
70269;DHT22;58514;48.398;-4.274;2023-02-13T05:31:59;5.50;83.60
70269;DHT22;58514;48.398;-4.274;2023-02-13T05:34:25;5.50;83.40
70269;DHT22;58514;48.398;-4.274;2023-02-13T05:36:51;5.50;83.20
70269;DHT22;58514;48.398;-4.274;2023-02-13T05:39:16;5.50;83.40
70269;DHT22;58514;48.398;-4.274;2023-02-13T05:41:42;5.40;83.30
70269;DHT22;58514;48.398;-4.274;2023-02-13T05:44:08;5.50;83.70
70269;DHT22;58514;48.398;-4.274;2023-02-13T05:46:35;5.40;83.00
70269;DHT22;58514;48.398;-4.274;2023-02-13T05:49:01;5.40;83.50
70269;DHT22;58514;48.398;-4.274;2023-02-13T05:51:26;5.40;83.30
70269;DHT22;58514;48.398;-4.274;2023-02-13T05:53:52;5.40;82.90
70269;DHT22;58514;48.398;-4.274;2023-02-13T05:56:17;5.40;83.40
70269;DHT22;58514;48.398;-4.274;2023-02-13T05:58:43;5.40;83.70
70269;DHT22;58514;48.398;-4.274;2023-02-13T06:01:09;5.40;83.90
70269;DHT22;58514;48.398;-4.274;2023-02-13T06:03:34;5.40;83.00
70269;DHT22;58514;48.398;-4.274;2023-02-13T06:06:00;5.40;83.70
70269;DHT22;58514;48.398;-4.274;2023-02-13T06:08:26;5.40;83.30
70269;DHT22;58514;48.398;-4.274;2023-02-13T06:10:51;5.40;83.70
70269;DHT22;58514;48.398;-4.274;2023-02-13T06:13:17;5.40;83.70
70269;DHT22;58514;48.398;-4.274;2023-02-13T06:15:43;5.40;83.50
70269;DHT22;58514;48.398;-4.274;2023-02-13T06:18:08;5.30;83.70
70269;DHT22;58514;48.398;-4.274;2023-02-13T06:20:35;5.30;83.50
70269;DHT22;58514;48.398;-4.274;2023-02-13T06:23:01;5.30;83.70
70269;DHT22;58514;48.398;-4.274;2023-02-13T06:25:27;5.20;83.90
70269;DHT22;58514;48.398;-4.274;2023-02-13T06:27:52;5.20;84.10
70269;DHT22;58514;48.398;-4.274;2023-02-13T06:30:18;5.20;84.30
70269;DHT22;58514;48.398;-4.274;2023-02-13T06:32:45;5.20;84.60
70269;DHT22;58514;48.398;-4.274;2023-02-13T06:35:11;5.10;84.60
70269;DHT22;58514;48.398;-4.274;2023-02-13T06:37:36;5.10;84.60
70269;DHT22;58514;48.398;-4.274;2023-02-13T06:40:04;5.10;84.70
70269;DHT22;58514;48.398;-4.274;2023-02-13T06:42:30;5.10;84.70
70269;DHT22;58514;48.398;-4.274;2023-02-13T06:44:55;5.10;84.70
70269;DHT22;58514;48.398;-4.274;2023-02-13T06:47:21;5.10;85.10
70269;DHT22;58514;48.398;-4.274;2023-02-13T06:49:46;5.10;85.20
70269;DHT22;58514;48.398;-4.274;2023-02-13T06:52:12;5.10;85.00
70269;DHT22;58514;48.398;-4.274;2023-02-13T06:54:37;5.10;85.00
70269;DHT22;58514;48.398;-4.274;2023-02-13T06:57:03;5.10;85.10
70269;DHT22;58514;48.398;-4.274;2023-02-13T06:59:28;5.10;85.10
70269;DHT22;58514;48.398;-4.274;2023-02-13T07:01:54;5.10;85.30
70269;DHT22;58514;48.398;-4.274;2023-02-13T07:04:19;5.10;85.60
70269;DHT22;58514;48.398;-4.274;2023-02-13T07:06:45;5.10;85.00
70269;DHT22;58514;48.398;-4.274;2023-02-13T07:09:10;5.10;85.10
70269;DHT22;58514;48.398;-4.274;2023-02-13T07:11:37;5.10;85.40
70269;DHT22;58514;48.398;-4.274;2023-02-13T07:14:05;5.10;85.10
70269;DHT22;58514;48.398;-4.274;2023-02-13T07:16:31;5.10;85.00
70269;DHT22;58514;48.398;-4.274;2023-02-13T07:18:56;5.10;84.80
70269;DHT22;58514;48.398;-4.274;2023-02-13T07:21:22;5.10;84.70
70269;DHT22;58514;48.398;-4.274;2023-02-13T07:23:47;5.10;85.20
70269;DHT22;58514;48.398;-4.274;2023-02-13T07:26:13;5.10;85.30
70269;DHT22;58514;48.398;-4.274;2023-02-13T07:28:40;5.10;85.40
70269;DHT22;58514;48.398;-4.274;2023-02-13T07:31:05;5.10;85.10
70269;DHT22;58514;48.398;-4.274;2023-02-13T07:33:34;5.10;85.50
70269;DHT22;58514;48.398;-4.274;2023-02-13T07:36:00;5.20;85.30
70269;DHT22;58514;48.398;-4.274;2023-02-13T07:38:28;5.20;85.20
70269;DHT22;58514;48.398;-4.274;2023-02-13T07:40:54;5.20;85.40
70269;DHT22;58514;48.398;-4.274;2023-02-13T07:43:19;5.20;84.90
70269;DHT22;58514;48.398;-4.274;2023-02-13T07:45:45;5.20;85.00
70269;DHT22;58514;48.398;-4.274;2023-02-13T07:48:11;5.20;85.40
70269;DHT22;58514;48.398;-4.274;2023-02-13T07:50:36;5.20;84.80
70269;DHT22;58514;48.398;-4.274;2023-02-13T07:53:02;5.10;86.00
70269;DHT22;58514;48.398;-4.274;2023-02-13T07:55:28;5.20;85.50
70269;DHT22;58514;48.398;-4.274;2023-02-13T07:57:54;5.20;84.80
70269;DHT22;58514;48.398;-4.274;2023-02-13T08:00:20;5.20;85.00
70269;DHT22;58514;48.398;-4.274;2023-02-13T08:02:46;5.20;85.60
70269;DHT22;58514;48.398;-4.274;2023-02-13T08:05:11;5.20;85.30
70269;DHT22;58514;48.398;-4.274;2023-02-13T08:07:37;5.20;85.20
70269;DHT22;58514;48.398;-4.274;2023-02-13T08:10:03;5.20;85.50
70269;DHT22;58514;48.398;-4.274;2023-02-13T08:12:49;5.30;85.80
70269;DHT22;58514;48.398;-4.274;2023-02-13T08:15:15;5.30;85.50
70269;DHT22;58514;48.398;-4.274;2023-02-13T08:17:41;5.30;86.20
70269;DHT22;58514;48.398;-4.274;2023-02-13T08:20:07;5.30;86.20
70269;DHT22;58514;48.398;-4.274;2023-02-13T08:22:33;5.30;86.20
70269;DHT22;58514;48.398;-4.274;2023-02-13T08:25:00;5.30;87.10
70269;DHT22;58514;48.398;-4.274;2023-02-13T08:27:25;5.30;86.20
70269;DHT22;58514;48.398;-4.274;2023-02-13T08:29:52;5.30;86.70
70269;DHT22;58514;48.398;-4.274;2023-02-13T08:32:17;5.30;86.40
70269;DHT22;58514;48.398;-4.274;2023-02-13T08:34:43;5.40;86.30
70269;DHT22;58514;48.398;-4.274;2023-02-13T08:37:09;5.40;86.30
70269;DHT22;58514;48.398;-4.274;2023-02-13T08:39:34;5.50;86.40
70269;DHT22;58514;48.398;-4.274;2023-02-13T08:42:00;5.50;86.30
70269;DHT22;58514;48.398;-4.274;2023-02-13T08:44:25;5.60;86.10
70269;DHT22;58514;48.398;-4.274;2023-02-13T08:46:51;5.60;87.20
70269;DHT22;58514;48.398;-4.274;2023-02-13T08:49:17;5.80;86.90
70269;DHT22;58514;48.398;-4.274;2023-02-13T08:51:42;6.00;89.40
70269;DHT22;58514;48.398;-4.274;2023-02-13T08:54:08;6.40;91.90
70269;DHT22;58514;48.398;-4.274;2023-02-13T08:56:34;6.80;92.90
70269;DHT22;58514;48.398;-4.274;2023-02-13T08:58:59;7.20;93.40
70269;DHT22;58514;48.398;-4.274;2023-02-13T09:01:25;7.70;93.30
70269;DHT22;58514;48.398;-4.274;2023-02-13T09:03:50;8.00;92.30
70269;DHT22;58514;48.398;-4.274;2023-02-13T09:06:16;8.40;92.60
70269;DHT22;58514;48.398;-4.274;2023-02-13T09:08:42;8.80;91.20
70269;DHT22;58514;48.398;-4.274;2023-02-13T09:11:08;9.00;90.10
70269;DHT22;58514;48.398;-4.274;2023-02-13T09:13:34;9.30;89.70
70269;DHT22;58514;48.398;-4.274;2023-02-13T09:16:02;9.40;87.20
70269;DHT22;58514;48.398;-4.274;2023-02-13T09:18:28;9.50;84.40
70269;DHT22;58514;48.398;-4.274;2023-02-13T09:21:00;9.60;82.90
70269;DHT22;58514;48.398;-4.274;2023-02-13T09:23:26;9.70;84.00
70269;DHT22;58514;48.398;-4.274;2023-02-13T09:25:51;9.80;84.80
70269;DHT22;58514;48.398;-4.274;2023-02-13T09:28:17;10.10;88.80
70269;DHT22;58514;48.398;-4.274;2023-02-13T09:30:43;10.40;90.10
70269;DHT22;58514;48.398;-4.274;2023-02-13T09:33:09;10.60;88.90
70269;DHT22;58514;48.398;-4.274;2023-02-13T09:35:35;10.80;87.00
70269;DHT22;58514;48.398;-4.274;2023-02-13T09:38:00;10.90;84.50
70269;DHT22;58514;48.398;-4.274;2023-02-13T09:40:46;11.00;82.60
70269;DHT22;58514;48.398;-4.274;2023-02-13T09:43:16;11.00;79.30
70269;DHT22;58514;48.398;-4.274;2023-02-13T09:45:43;10.90;79.20
70269;DHT22;58514;48.398;-4.274;2023-02-13T09:48:14;10.80;79.30
70269;DHT22;58514;48.398;-4.274;2023-02-13T09:50:42;10.80;79.00
70269;DHT22;58514;48.398;-4.274;2023-02-13T09:53:08;10.80;78.80
70269;DHT22;58514;48.398;-4.274;2023-02-13T09:58:12;10.90;78.70
70269;DHT22;58514;48.398;-4.274;2023-02-13T10:00:41;11.00;79.20
70269;DHT22;58514;48.398;-4.274;2023-02-13T10:05:59;11.30;80.30
70269;DHT22;58514;48.398;-4.274;2023-02-13T10:16:17;12.80;90.60
70269;DHT22;58514;48.398;-4.274;2023-02-13T10:21:10;13.60;92.40
70269;DHT22;58514;48.398;-4.274;2023-02-13T10:23:43;14.10;93.00
70269;DHT22;58514;48.398;-4.274;2023-02-13T10:26:11;14.50;91.70
70269;DHT22;58514;48.398;-4.274;2023-02-13T10:28:45;14.80;93.00
70269;DHT22;58514;48.398;-4.274;2023-02-13T10:31:32;15.30;94.20
70269;DHT22;58514;48.398;-4.274;2023-02-13T10:33:59;15.80;92.30
70269;DHT22;58514;48.398;-4.274;2023-02-13T10:36:27;15.90;86.40
70269;DHT22;58514;48.398;-4.274;2023-02-13T10:38:56;16.20;90.70
70269;DHT22;58514;48.398;-4.274;2023-02-13T10:41:23;16.50;91.10
70269;DHT22;58514;48.398;-4.274;2023-02-13T10:49:46;17.40;89.40
70269;DHT22;58514;48.398;-4.274;2023-02-13T10:52:30;17.70;86.80
70269;DHT22;58514;48.398;-4.274;2023-02-13T11:02:58;18.70;81.60
70269;DHT22;58514;48.398;-4.274;2023-02-13T11:05:45;19.00;81.60
70269;DHT22;58514;48.398;-4.274;2023-02-13T11:08:52;19.20;77.60
70269;DHT22;58514;48.398;-4.274;2023-02-13T11:10:59;19.50;76.90
70269;DHT22;58514;48.398;-4.274;2023-02-13T11:13:25;19.80;75.70
70269;DHT22;58514;48.398;-4.274;2023-02-13T11:16:01;20.10;71.70
70269;DHT22;58514;48.398;-4.274;2023-02-13T11:18:29;20.30;68.50
70269;DHT22;58514;48.398;-4.274;2023-02-13T11:20:58;20.50;67.40
70269;DHT22;58514;48.398;-4.274;2023-02-13T11:28:20;20.70;59.00
70269;DHT22;58514;48.398;-4.274;2023-02-13T11:30:46;20.80;59.50
70269;DHT22;58514;48.398;-4.274;2023-02-13T11:35:42;20.60;56.90
70269;DHT22;58514;48.398;-4.274;2023-02-13T11:40:46;20.10;55.00
70269;DHT22;58514;48.398;-4.274;2023-02-13T11:43:15;19.80;56.00
70269;DHT22;58514;48.398;-4.274;2023-02-13T11:45:41;19.70;59.30
70269;DHT22;58514;48.398;-4.274;2023-02-13T11:48:08;19.70;56.80
70269;DHT22;58514;48.398;-4.274;2023-02-13T11:50:33;19.70;59.80
70269;DHT22;58514;48.398;-4.274;2023-02-13T11:53:02;19.80;58.90
70269;DHT22;58514;48.398;-4.274;2023-02-13T11:55:36;20.00;61.30
70269;DHT22;58514;48.398;-4.274;2023-02-13T12:00:38;20.50;62.70
70269;DHT22;58514;48.398;-4.274;2023-02-13T12:03:47;20.80;62.70
70269;DHT22;58514;48.398;-4.274;2023-02-13T12:08:33;21.20;62.30
70269;DHT22;58514;48.398;-4.274;2023-02-13T12:10:59;21.40;60.80
70269;DHT22;58514;48.398;-4.274;2023-02-13T12:13:34;21.60;59.90
70269;DHT22;58514;48.398;-4.274;2023-02-13T12:16:03;21.70;58.70
70269;DHT22;58514;48.398;-4.274;2023-02-13T12:21:01;21.60;54.40
70269;DHT22;58514;48.398;-4.274;2023-02-13T12:23:29;21.50;56.80
70269;DHT22;58514;48.398;-4.274;2023-02-13T12:26:04;21.70;59.40
70269;DHT22;58514;48.398;-4.274;2023-02-13T12:28:44;21.90;58.20
70269;DHT22;58514;48.398;-4.274;2023-02-13T12:47:17;21.70;50.60
70269;DHT22;58514;48.398;-4.274;2023-02-13T13:26:20;17.80;55.80
70269;DHT22;58514;48.398;-4.274;2023-02-13T13:28:49;17.70;56.00
70269;DHT22;58514;48.398;-4.274;2023-02-13T13:31:16;17.60;56.20
70269;DHT22;58514;48.398;-4.274;2023-02-13T13:33:43;17.50;56.20
70269;DHT22;58514;48.398;-4.274;2023-02-13T13:36:19;17.40;56.70
70269;DHT22;58514;48.398;-4.274;2023-02-13T13:38:56;17.30;57.40
70269;DHT22;58514;48.398;-4.274;2023-02-13T13:46:32;17.20;58.00
70269;DHT22;58514;48.398;-4.274;2023-02-13T13:49:04;17.10;58.30
70269;DHT22;58514;48.398;-4.274;2023-02-13T13:51:33;17.10;58.60
70269;DHT22;58514;48.398;-4.274;2023-02-13T14:04:39;16.60;59.50
70269;DHT22;58514;48.398;-4.274;2023-02-13T14:09:38;16.10;61.50
70269;DHT22;58514;48.398;-4.274;2023-02-13T14:14:48;15.90;63.00
70269;DHT22;58514;48.398;-4.274;2023-02-13T14:17:14;15.90;63.80
70269;DHT22;58514;48.398;-4.274;2023-02-13T14:19:40;15.90;64.60
70269;DHT22;58514;48.398;-4.274;2023-02-13T14:25:20;15.80;65.90
70269;DHT22;58514;48.398;-4.274;2023-02-13T14:27:37;15.90;66.20
70269;DHT22;58514;48.398;-4.274;2023-02-13T14:30:04;15.90;67.40
70269;DHT22;58514;48.398;-4.274;2023-02-13T14:32:30;15.80;66.30
70269;DHT22;58514;48.398;-4.274;2023-02-13T14:35:00;15.70;65.40
70269;DHT22;58514;48.398;-4.274;2023-02-13T14:37:27;15.50;66.90
70269;DHT22;58514;48.398;-4.274;2023-02-13T14:42:35;15.30;68.10
70269;DHT22;58514;48.398;-4.274;2023-02-13T14:45:01;15.20;69.00
70269;DHT22;58514;48.398;-4.274;2023-02-13T14:47:32;15.10;69.70
70269;DHT22;58514;48.398;-4.274;2023-02-13T14:50:00;15.10;69.20
70269;DHT22;58514;48.398;-4.274;2023-02-13T14:52:38;15.00;69.30
70269;DHT22;58514;48.398;-4.274;2023-02-13T14:55:19;15.00;70.10
70269;DHT22;58514;48.398;-4.274;2023-02-13T14:57:49;15.00;69.40
70269;DHT22;58514;48.398;-4.274;2023-02-13T15:00:27;15.00;69.90
70269;DHT22;58514;48.398;-4.274;2023-02-13T15:02:55;15.00;70.00
70269;DHT22;58514;48.398;-4.274;2023-02-13T15:05:23;14.90;69.80
70269;DHT22;58514;48.398;-4.274;2023-02-13T15:07:53;14.60;70.60
70269;DHT22;58514;48.398;-4.274;2023-02-13T15:12:55;14.50;72.40
70269;DHT22;58514;48.398;-4.274;2023-02-13T15:15:33;14.50;72.10
70269;DHT22;58514;48.398;-4.274;2023-02-13T15:18:02;14.50;72.80
70269;DHT22;58514;48.398;-4.274;2023-02-13T15:20:29;14.50;74.00
70269;DHT22;58514;48.398;-4.274;2023-02-13T15:22:57;14.50;73.20
70269;DHT22;58514;48.398;-4.274;2023-02-13T15:25:24;14.50;73.40
70269;DHT22;58514;48.398;-4.274;2023-02-13T15:27:54;14.50;72.90
70269;DHT22;58514;48.398;-4.274;2023-02-13T15:30:25;14.50;72.60
70269;DHT22;58514;48.398;-4.274;2023-02-13T15:32:58;14.40;73.30
70269;DHT22;58514;48.398;-4.274;2023-02-13T15:37:49;14.30;73.90
70269;DHT22;58514;48.398;-4.274;2023-02-13T15:40:28;14.20;74.10
70269;DHT22;58514;48.398;-4.274;2023-02-13T15:42:54;14.10;74.30
70269;DHT22;58514;48.398;-4.274;2023-02-13T15:45:21;14.00;74.80
70269;DHT22;58514;48.398;-4.274;2023-02-13T15:47:48;14.00;75.90
70269;DHT22;58514;48.398;-4.274;2023-02-13T15:50:19;13.90;75.10
70269;DHT22;58514;48.398;-4.274;2023-02-13T15:52:46;13.90;75.00
70269;DHT22;58514;48.398;-4.274;2023-02-13T15:55:17;13.90;74.80
70269;DHT22;58514;48.398;-4.274;2023-02-13T15:57:42;13.90;74.20
70269;DHT22;58514;48.398;-4.274;2023-02-13T16:00:12;13.90;74.40
70269;DHT22;58514;48.398;-4.274;2023-02-13T16:02:45;13.90;74.50
70269;DHT22;58514;48.398;-4.274;2023-02-13T16:05:12;13.90;74.50
70269;DHT22;58514;48.398;-4.274;2023-02-13T16:08:19;13.80;76.30
70269;DHT22;58514;48.398;-4.274;2023-02-13T16:10:31;13.80;75.90
70269;DHT22;58514;48.398;-4.274;2023-02-13T16:13:02;13.80;76.40
70269;DHT22;58514;48.398;-4.274;2023-02-13T16:15:29;13.80;76.50
70269;DHT22;58514;48.398;-4.274;2023-02-13T16:17:55;13.70;76.90
70269;DHT22;58514;48.398;-4.274;2023-02-13T16:20:21;13.70;76.80
70269;DHT22;58514;48.398;-4.274;2023-02-13T16:25:23;13.60;76.80
70269;DHT22;58514;48.398;-4.274;2023-02-13T16:30:34;13.60;77.70
70269;DHT22;58514;48.398;-4.274;2023-02-13T16:35:42;13.50;78.40
70269;DHT22;58514;48.398;-4.274;2023-02-13T16:40:53;13.50;77.30
70269;DHT22;58514;48.398;-4.274;2023-02-13T16:44:04;13.60;76.10
70269;DHT22;58514;48.398;-4.274;2023-02-13T16:48:42;13.60;77.50
70269;DHT22;58514;48.398;-4.274;2023-02-13T16:51:08;13.60;77.00
70269;DHT22;58514;48.398;-4.274;2023-02-13T16:53:34;13.60;77.90
70269;DHT22;58514;48.398;-4.274;2023-02-13T16:56:01;13.60;78.10
70269;DHT22;58514;48.398;-4.274;2023-02-13T16:58:27;13.50;78.10
70269;DHT22;58514;48.398;-4.274;2023-02-13T17:00:53;13.40;77.40
70269;DHT22;58514;48.398;-4.274;2023-02-13T17:03:18;13.40;76.70
70269;DHT22;58514;48.398;-4.274;2023-02-13T17:05:44;13.40;78.50
70269;DHT22;58514;48.398;-4.274;2023-02-13T17:08:09;13.40;79.20
70269;DHT22;58514;48.398;-4.274;2023-02-13T17:10:36;13.30;79.80
70269;DHT22;58514;48.398;-4.274;2023-02-13T17:13:10;13.30;79.00
70269;DHT22;58514;48.398;-4.274;2023-02-13T17:15:37;13.30;78.10
70269;DHT22;58514;48.398;-4.274;2023-02-13T17:18:05;13.30;78.50
70269;DHT22;58514;48.398;-4.274;2023-02-13T17:20:31;13.20;79.20
70269;DHT22;58514;48.398;-4.274;2023-02-13T17:22:58;13.20;78.60
70269;DHT22;58514;48.398;-4.274;2023-02-13T17:25:25;13.20;79.30
70269;DHT22;58514;48.398;-4.274;2023-02-13T17:27:51;13.20;81.00
70269;DHT22;58514;48.398;-4.274;2023-02-13T17:30:18;13.10;80.20
70269;DHT22;58514;48.398;-4.274;2023-02-13T17:32:44;13.10;79.80
70269;DHT22;58514;48.398;-4.274;2023-02-13T17:35:10;13.10;79.50
70269;DHT22;58514;48.398;-4.274;2023-02-13T17:37:37;13.10;78.80
70269;DHT22;58514;48.398;-4.274;2023-02-13T17:40:02;13.10;79.50
70269;DHT22;58514;48.398;-4.274;2023-02-13T17:42:28;13.00;79.30
70269;DHT22;58514;48.398;-4.274;2023-02-13T17:44:55;13.00;80.20
70269;DHT22;58514;48.398;-4.274;2023-02-13T17:47:21;13.00;80.00
70269;DHT22;58514;48.398;-4.274;2023-02-13T17:49:47;12.90;80.00
70269;DHT22;58514;48.398;-4.274;2023-02-13T17:52:14;12.90;79.70
70269;DHT22;58514;48.398;-4.274;2023-02-13T17:54:40;12.90;80.80
70269;DHT22;58514;48.398;-4.274;2023-02-13T17:57:06;12.90;79.30
70269;DHT22;58514;48.398;-4.274;2023-02-13T17:59:32;12.80;79.20
70269;DHT22;58514;48.398;-4.274;2023-02-13T18:01:57;12.80;78.80
70269;DHT22;58514;48.398;-4.274;2023-02-13T18:04:23;12.70;80.40
70269;DHT22;58514;48.398;-4.274;2023-02-13T18:06:52;12.70;80.80
70269;DHT22;58514;48.398;-4.274;2023-02-13T18:09:18;12.60;81.50
70269;DHT22;58514;48.398;-4.274;2023-02-13T18:11:48;12.60;80.30
70269;DHT22;58514;48.398;-4.274;2023-02-13T18:14:14;12.50;81.10
70269;DHT22;58514;48.398;-4.274;2023-02-13T18:16:39;12.50;80.20
70269;DHT22;58514;48.398;-4.274;2023-02-13T18:19:05;12.40;79.30
70269;DHT22;58514;48.398;-4.274;2023-02-13T18:21:30;12.30;78.80
70269;DHT22;58514;48.398;-4.274;2023-02-13T18:23:56;12.30;79.00
70269;DHT22;58514;48.398;-4.274;2023-02-13T18:26:22;12.20;79.20
70269;DHT22;58514;48.398;-4.274;2023-02-13T18:28:47;12.10;80.60
70269;DHT22;58514;48.398;-4.274;2023-02-13T18:31:17;12.10;79.90
70269;DHT22;58514;48.398;-4.274;2023-02-13T18:33:42;12.00;79.30
70269;DHT22;58514;48.398;-4.274;2023-02-13T18:36:08;12.00;79.90
70269;DHT22;58514;48.398;-4.274;2023-02-13T18:38:33;12.00;80.60
70269;DHT22;58514;48.398;-4.274;2023-02-13T18:40:59;12.00;81.80
70269;DHT22;58514;48.398;-4.274;2023-02-13T18:43:24;11.90;81.10
70269;DHT22;58514;48.398;-4.274;2023-02-13T18:45:50;11.90;81.20
70269;DHT22;58514;48.398;-4.274;2023-02-13T18:48:15;11.80;81.60